Hillgrove, Washington
Current Conditions -  °F | °C
As of 11:22 AM on Friday 28 Nov 2014 (Local Time) from KSHN Reporting Station
Light Rain Light Rain  
Wind Chill: 44°   Ceiling: 3400
Heat Index: 48°   Visibility: 4mi
Dew Point: 46°   Wind: 8mph
Humidity: 93%   Direction: 240°WSW
Pressure: 29.46"   Gusts: NA
Location:  47.0427°N, 123.269°W
Report Text: KSHN 281922Z AUTO 24007KT 4SM -RA BR SCT007 OVC034 09/08 A2946 RMK AO2 P0001 T00890078
Loading
Personal Weather Stations






























Interactive Weather Map New forecast layout! Learn more

10-Day Weather Forecast

Advertisements
Track Severe Weather on mobile